createdAt,value
2022-09-04T00:01:57.767Z,4.6
2022-09-04T00:04:02.101Z,4.4
2022-09-04T00:08:10.153Z,4.6
2022-09-04T00:10:17.169Z,4.1
2022-09-04T00:12:18.431Z,4.9
2022-09-04T00:14:25.569Z,4.9
2022-09-04T00:16:29.803Z,4.3
2022-09-04T00:18:33.881Z,3.6
2022-09-04T00:19:37.420Z,4.2
2022-09-04T00:21:41.548Z,4.1
2022-09-04T00:23:45.675Z,3.9
2022-09-04T00:25:49.819Z,4.2
2022-09-04T00:27:56.944Z,3.5
2022-09-04T00:30:01.105Z,4
2022-09-04T00:34:09.340Z,4.4
2022-09-04T00:36:13.475Z,3.8
2022-09-04T00:38:17.672Z,3.8
2022-09-04T00:42:28.876Z,3.3
2022-09-04T00:44:32.999Z,3.6
2022-09-04T00:46:37.136Z,4.5
2022-09-04T00:48:41.252Z,4.1
2022-09-04T00:57:00.775Z,4.3
2022-09-04T01:01:08.887Z,4.6
2022-09-04T01:05:19.593Z,4.4
2022-09-04T01:07:21.081Z,3.7
2022-09-04T01:11:32.353Z,3.5
2022-09-04T01:13:36.445Z,3.6
2022-09-04T01:15:40.568Z,4.7
2022-09-04T01:20:07.138Z,4.3
2022-09-04T01:24:18.380Z,4.3
2022-09-04T01:26:22.485Z,4.6
2022-09-04T01:28:26.688Z,5.2
2022-09-04T01:30:30.735Z,3.7
2022-09-04T01:34:38.994Z,4.4
2022-09-04T01:36:43.113Z,3.5
2022-09-04T01:49:12.400Z,5.1
2022-09-04T01:51:16.511Z,5.1
2022-09-04T01:53:23.655Z,6.4
2022-09-04T01:55:27.790Z,5.2
2022-09-04T01:57:31.894Z,4.6
2022-09-04T01:59:36.001Z,6.1
2022-09-04T02:01:40.141Z,5.4
2022-09-04T02:03:44.250Z,4.8
2022-09-04T02:05:48.384Z,4.7
2022-09-04T02:07:56.033Z,6
2022-09-04T02:10:06.559Z,5.7
2022-09-04T02:12:03.738Z,4
2022-09-04T02:13:07.320Z,4.9
2022-09-04T02:15:11.438Z,5.2
2022-09-04T02:17:15.540Z,5.1
2022-09-04T02:19:19.662Z,5.6
2022-09-04T02:21:26.784Z,4.2
2022-09-04T02:23:30.917Z,4.7
2022-09-04T02:27:39.145Z,5.3
2022-09-04T02:29:43.256Z,5.3
2022-09-04T02:31:47.636Z,5
2022-09-04T02:33:51.486Z,5.5
2022-09-04T02:35:58.609Z,6.2
2022-09-04T02:38:02.716Z,6.5
2022-09-04T02:40:06.849Z,6
2022-09-04T02:42:10.959Z,6.3
2022-09-04T02:46:19.234Z,5.1
2022-09-04T02:50:30.418Z,6.1
2022-09-04T02:52:34.550Z,6.2
2022-09-04T02:54:38.637Z,6.6
2022-09-04T02:56:42.787Z,5.5
2022-09-04T02:58:46.901Z,6
2022-09-04T03:00:51.029Z,6.1
2022-09-04T03:02:55.113Z,6.3
2022-09-04T03:05:02.260Z,7.7
2022-09-04T03:07:06.350Z,6.1
2022-09-04T03:09:10.459Z,5.4
2022-09-04T03:10:14.019Z,5.6
2022-09-04T03:12:18.121Z,5.9
2022-09-04T03:14:22.244Z,5.9
2022-09-04T03:16:26.417Z,6.2
2022-09-04T03:18:33.473Z,6.3
2022-09-04T03:20:37.609Z,5.8
2022-09-04T03:22:41.673Z,5.9
2022-09-04T03:24:45.792Z,6.9
2022-09-04T03:26:49.900Z,5.7
2022-09-04T03:28:54.245Z,5.8
2022-09-04T03:30:58.127Z,5.5
2022-09-04T03:33:05.625Z,6.3
2022-09-04T03:35:09.408Z,6.2
2022-09-04T03:37:28.844Z,6.4
2022-09-04T03:39:17.569Z,5.5
2022-09-04T03:41:21.688Z,6.4
2022-09-04T03:43:25.776Z,7.4
2022-09-04T03:45:29.909Z,5.8
2022-09-04T03:47:37.006Z,6.9
2022-09-04T03:49:41.474Z,7
2022-09-04T03:51:45.218Z,7.7
2022-09-04T03:55:53.478Z,7.7
2022-09-04T03:57:57.744Z,7.5
2022-09-04T04:00:01.700Z,7.1
2022-09-04T04:02:08.790Z,7.9
2022-09-04T04:04:12.916Z,7.1
2022-09-04T04:06:16.995Z,7.3
2022-09-04T04:07:20.564Z,8.5
2022-09-04T04:09:24.664Z,6.2
2022-09-04T04:11:28.762Z,8.1
2022-09-04T04:13:32.863Z,6.8
2022-09-04T04:15:39.995Z,7.4
2022-09-04T04:17:44.105Z,7.1
2022-09-04T04:19:48.200Z,7.9
2022-09-04T04:21:52.304Z,8
2022-09-04T04:30:11.771Z,8.5
2022-09-04T04:32:15.858Z,7
2022-09-04T04:36:24.048Z,7.2
2022-09-04T04:38:28.160Z,6.3
2022-09-04T04:40:32.262Z,7.6
2022-09-04T04:42:36.365Z,7.9
2022-09-04T04:44:43.488Z,8.3
2022-09-04T04:48:51.666Z,7.7
2022-09-04T04:50:55.776Z,7.8
2022-09-04T04:55:04.018Z,7.6
2022-09-04T05:03:23.369Z,6.7
2022-09-04T05:05:47.485Z,8.3
2022-09-04T05:07:51.587Z,6.9
2022-09-04T05:09:55.690Z,6.7
2022-09-04T05:12:02.824Z,8.6
2022-09-04T05:14:06.897Z,7
2022-09-04T05:16:11.584Z,6.4
2022-09-04T05:18:15.112Z,8.1
2022-09-04T05:20:19.207Z,7.6
2022-09-04T05:22:23.326Z,6.7
2022-09-04T05:24:27.473Z,7.4
2022-09-04T05:26:34.540Z,7.4
2022-09-04T05:28:38.617Z,7.7
2022-09-04T05:30:42.711Z,7.5
2022-09-04T05:34:50.906Z,8
2022-09-04T05:36:54.993Z,7
2022-09-04T05:38:59.116Z,7.3
2022-09-04T05:41:06.276Z,6.9
2022-09-04T05:43:10.340Z,7.4
2022-09-04T05:45:14.435Z,9.4
2022-09-04T05:47:18.515Z,7.6
2022-09-04T05:49:22.640Z,8.5
2022-09-04T05:51:26.734Z,7.9
2022-09-04T05:53:30.832Z,7.9
2022-09-04T05:55:37.971Z,6.9
2022-09-04T05:57:42.078Z,8.5
2022-09-04T05:59:46.177Z,8.3
2022-09-04T06:02:53.886Z,8.2
2022-09-04T06:07:02.084Z,7.3
2022-09-04T06:09:09.276Z,8.2
2022-09-04T06:11:13.283Z,6.8
2022-09-04T06:13:17.387Z,7.7
2022-09-04T06:15:21.508Z,6.8
2022-09-04T06:17:25.604Z,6.1
2022-09-04T06:21:33.833Z,7.1
2022-09-04T06:25:45.084Z,7.2
2022-09-04T06:27:49.205Z,6.1
2022-09-04T06:29:53.311Z,7.5
2022-09-04T06:31:57.427Z,7.4
2022-09-04T06:34:01.528Z,7.3
2022-09-04T06:36:05.650Z,8.1
2022-09-04T06:38:12.817Z,6.8
2022-09-04T06:40:16.884Z,7.4
2022-09-04T06:42:20.987Z,6.2
2022-09-04T06:44:25.112Z,6.5
2022-09-04T06:46:29.287Z,8
2022-09-04T06:48:33.354Z,7.9
2022-09-04T06:50:37.450Z,7.3
2022-09-04T06:52:44.575Z,9.3
2022-09-04T06:54:48.708Z,7.7
2022-09-04T06:56:52.861Z,7.7
2022-09-04T06:57:56.392Z,7
2022-09-04T07:02:04.750Z,8.7
2022-09-04T07:04:08.768Z,9.3
2022-09-04T07:18:40.666Z,8.2
2022-09-04T07:20:47.822Z,8.5
2022-09-04T07:22:51.957Z,8
2022-09-04T07:24:56.077Z,8.9
2022-09-04T07:27:00.231Z,9.2
2022-09-04T07:29:04.358Z,7.7
2022-09-04T07:31:08.531Z,7.9
2022-09-04T07:33:12.611Z,7.9
2022-09-04T07:35:20.255Z,9.3
2022-09-04T07:37:24.341Z,9.5
2022-09-04T07:39:28.508Z,9.1
2022-09-04T07:41:32.600Z,9.4
2022-09-04T07:43:36.823Z,8.1
2022-09-04T07:45:40.893Z,9.6
2022-09-04T07:47:45.016Z,8.5
2022-09-04T07:49:52.152Z,8
2022-09-04T07:51:56.299Z,8.2
2022-09-04T07:54:00.454Z,6.6
2022-09-04T07:57:08.148Z,8.1
2022-09-04T07:59:12.276Z,7.5
2022-09-04T08:01:16.576Z,7.1
2022-09-04T08:03:23.598Z,7.6
2022-09-04T08:05:27.709Z,6.8
2022-09-04T08:07:31.845Z,7.3
2022-09-04T08:09:35.980Z,7
2022-09-04T08:11:40.109Z,5.1
2022-09-04T08:13:44.250Z,5.8
2022-09-04T08:15:48.421Z,6
2022-09-04T08:17:55.523Z,6
2022-09-04T08:19:59.674Z,6.1
2022-09-04T08:22:03.845Z,6
2022-09-04T08:24:07.925Z,10.6
2022-09-04T08:28:16.181Z,7
2022-09-04T08:32:32.455Z,6.6
2022-09-04T08:35:19.928Z,6.1
2022-09-04T08:36:35.685Z,6
2022-09-04T08:40:43.951Z,6.5
2022-09-04T08:42:48.044Z,6.2
2022-09-04T08:44:52.188Z,6.8
2022-09-04T08:53:31.683Z,5.7
2022-09-04T08:55:35.798Z,6
2022-09-04T08:57:39.917Z,6.6
2022-09-04T08:59:47.067Z,6
2022-09-04T09:01:51.236Z,6.1
2022-09-04T09:05:59.383Z,5.4
2022-09-04T09:10:07.611Z,5.7
2022-09-04T09:12:11.693Z,4.7
2022-09-04T09:14:18.843Z,5.8
2022-09-04T09:16:23.061Z,4.7
2022-09-04T09:18:27.064Z,5.9
2022-09-04T09:20:31.252Z,5.2
2022-09-04T09:24:39.362Z,5.6
2022-09-04T09:26:43.462Z,4.8
2022-09-04T09:28:50.605Z,6
2022-09-04T09:30:54.782Z,4.7
2022-09-04T09:32:58.809Z,4.6
2022-09-04T09:37:06.995Z,5.5
2022-09-04T09:39:11.072Z,4.5
2022-09-04T09:41:15.171Z,4.5
2022-09-04T09:48:34.038Z,4.2
2022-09-04T09:50:38.111Z,2.6
2022-09-04T09:54:46.265Z,2.9
2022-09-04T09:56:53.972Z,4
2022-09-04T09:58:57.470Z,3.1
2022-09-04T10:01:05.297Z,3.9
2022-09-04T10:05:09.692Z,3
2022-09-04T10:07:13.770Z,3.3
2022-09-04T10:09:17.817Z,3.1
2022-09-04T10:11:24.948Z,2.5
2022-09-04T10:13:29.010Z,3
2022-09-04T10:15:33.079Z,3
2022-09-04T10:17:37.138Z,2.3
2022-09-04T10:19:41.198Z,3.2
2022-09-04T10:21:45.263Z,2.8
2022-09-04T10:23:49.311Z,1.7
2022-09-04T10:25:56.433Z,2.9
2022-09-04T10:28:00.497Z,2.2
2022-09-04T10:32:08.602Z,2.2
2022-09-04T10:34:12.648Z,2.1
2022-09-04T10:36:16.692Z,2.4
2022-09-04T10:38:20.761Z,2
2022-09-04T10:40:27.859Z,1.9
2022-09-04T10:44:35.961Z,3.6
2022-09-04T10:49:47.575Z,1.9
2022-09-04T10:51:51.604Z,2.1
2022-09-04T10:53:58.707Z,1.4
2022-09-04T10:56:02.715Z,1.5
2022-09-04T11:02:14.835Z,2.3
2022-09-04T11:04:18.820Z,2.1
2022-09-04T11:08:29.917Z,1.8
2022-09-04T11:10:33.957Z,1.8
2022-09-04T11:12:37.991Z,1.9
2022-09-04T11:14:42.005Z,1.7
2022-09-04T11:16:46.110Z,2
2022-09-04T11:18:50.170Z,1.8
2022-09-04T11:20:54.093Z,2.4
2022-09-04T11:23:01.190Z,1.8
2022-09-04T11:25:05.197Z,1.9
2022-09-04T11:27:09.241Z,2.1
2022-09-04T11:29:13.264Z,1.9
2022-09-04T11:31:17.296Z,1.8
2022-09-04T11:33:21.254Z,1.7
2022-09-04T11:35:25.262Z,1.9
2022-09-04T11:37:32.335Z,1.5
2022-09-04T11:39:36.363Z,2.1
2022-09-04T11:41:40.372Z,2.8
2022-09-04T11:42:43.900Z,2.1
2022-09-04T11:44:47.930Z,2.4
2022-09-04T11:46:51.948Z,2.2
2022-09-04T11:48:55.957Z,1.4
2022-09-04T11:53:07.063Z,2.6
2022-09-04T11:55:11.081Z,1.5
2022-09-04T11:57:15.112Z,1.6
2022-09-04T11:59:19.116Z,1.3
2022-09-04T12:01:23.152Z,1.5
2022-09-04T12:03:27.195Z,1.4
2022-09-04T12:07:43.019Z,1.5
2022-09-04T12:09:42.284Z,1.5
2022-09-04T12:13:50.321Z,1.3
2022-09-04T12:15:54.351Z,1.6
2022-09-04T12:24:13.444Z,1.3
2022-09-04T12:26:17.469Z,1.1
2022-09-04T12:28:21.514Z,1.3
2022-09-04T12:32:29.507Z,1.2
2022-09-04T12:41:02.893Z,1.5
2022-09-04T12:43:06.918Z,1.4
2022-09-04T12:45:10.929Z,1.9
2022-09-04T12:47:18.008Z,1.4
2022-09-04T12:49:22.031Z,1.3
2022-09-04T12:51:26.077Z,1.4
2022-09-04T12:53:30.109Z,1.5
2022-09-04T12:55:36.399Z,1.3
2022-09-04T12:57:38.169Z,1.1
2022-09-04T12:59:42.212Z,1.6
2022-09-04T13:01:49.378Z,0.9
2022-09-04T13:03:53.377Z,1.2
2022-09-04T13:05:57.491Z,1.2
2022-09-04T13:08:01.440Z,1.6
2022-09-04T13:12:09.532Z,1.3
2022-09-04T13:14:13.603Z,1.2
2022-09-04T13:16:20.746Z,1.1
2022-09-04T13:18:24.685Z,1.2
2022-09-04T13:20:28.758Z,1.2
2022-09-04T13:26:40.957Z,1.1
2022-09-04T13:28:44.925Z,1.1
2022-09-04T13:30:52.050Z,1.1
2022-09-04T13:32:57.626Z,1.2
2022-09-04T13:36:05.169Z,1.2
2022-09-04T13:38:09.214Z,1.3
2022-09-04T13:40:13.274Z,1.3
2022-09-04T13:42:17.316Z,1.4
2022-09-04T13:44:24.388Z,1.2
2022-09-04T13:46:28.596Z,1.4
2022-09-04T13:48:32.490Z,1.3
2022-09-04T13:50:36.564Z,0.9
2022-09-04T13:52:40.598Z,1.4
2022-09-04T13:54:44.644Z,0.8
2022-09-04T13:56:48.684Z,0.8
2022-09-04T13:58:55.814Z,0.6
2022-09-04T14:00:59.913Z,1.2
2022-09-04T14:03:03.904Z,1
2022-09-04T14:07:12.001Z,1.4
2022-09-04T14:09:16.088Z,1.6
2022-09-04T14:11:20.088Z,0.9
2022-09-04T14:13:27.217Z,1.2
2022-09-04T14:15:31.251Z,1.1
2022-09-04T14:19:39.339Z,0.9
2022-09-04T14:21:43.406Z,0.8
2022-09-04T14:23:47.476Z,0.7
2022-09-04T14:25:51.495Z,0.9
2022-09-04T14:27:58.586Z,1
2022-09-04T14:30:02.647Z,1.2
2022-09-04T14:32:06.866Z,0.8
2022-09-04T14:33:19.145Z,0.9
2022-09-04T14:37:18.314Z,1
2022-09-04T14:39:22.432Z,1
2022-09-04T14:41:32.828Z,1
2022-09-04T14:43:33.503Z,0.9
2022-09-04T14:45:37.529Z,1.2
2022-09-04T14:47:41.577Z,1.3
2022-09-04T14:49:47.216Z,1
2022-09-04T14:51:49.641Z,1.3
2022-09-04T14:53:53.962Z,1.1
2022-09-04T14:56:01.026Z,1.9
2022-09-04T15:02:13.175Z,1.2
2022-09-04T15:04:17.210Z,1.3
2022-09-04T15:06:24.417Z,1.5
2022-09-04T15:08:25.444Z,1.4
2022-09-04T15:10:32.421Z,1.4
2022-09-04T15:14:40.484Z,0.8
2022-09-04T15:16:44.523Z,1.3
2022-09-04T15:18:48.574Z,1.5
2022-09-04T15:20:53.716Z,1.2
2022-09-04T15:22:56.652Z,1.7
2022-09-04T15:25:03.733Z,1.2
2022-09-04T15:27:07.752Z,1.3
2022-09-04T15:29:11.819Z,1.7
2022-09-04T15:32:19.373Z,1.1
2022-09-04T15:34:23.415Z,1.5
2022-09-04T15:36:27.464Z,0.9
2022-09-04T15:38:34.542Z,1.4
2022-09-04T15:40:38.574Z,1.7
2022-09-04T15:42:42.642Z,1.9
2022-09-04T15:44:46.683Z,1.3
2022-09-04T15:46:50.753Z,2.3
2022-09-04T15:50:58.773Z,1.2
2022-09-04T15:53:05.878Z,1.4
2022-09-04T15:57:14.028Z,1.5
2022-09-04T15:59:18.013Z,1.7
2022-09-04T16:01:22.137Z,2.1
2022-09-04T16:09:41.297Z,1.9
2022-09-04T16:15:53.515Z,1.1
2022-09-04T16:20:01.580Z,1.3
2022-09-04T16:28:35.325Z,1.2
2022-09-04T16:34:50.493Z,0.9
2022-09-04T16:36:54.541Z,0.8
2022-09-04T16:38:58.597Z,1
2022-09-04T16:41:02.644Z,1.1
2022-09-04T16:45:10.764Z,1.1
2022-09-04T16:47:14.799Z,1.1
2022-09-04T16:49:21.917Z,1.3
2022-09-04T16:51:39.187Z,0.9
2022-09-04T16:53:30.002Z,0.9
2022-09-04T16:59:42.172Z,1.1
2022-09-04T17:01:46.409Z,0.9
2022-09-04T17:03:54.052Z,0.9
2022-09-04T17:05:57.428Z,1.2
2022-09-04T17:08:01.491Z,1.1
2022-09-04T17:10:05.627Z,1.1
2022-09-04T17:12:09.614Z,1.1
2022-09-04T17:14:13.678Z,0.9
2022-09-04T17:16:17.824Z,1.1
2022-09-04T17:18:25.219Z,1.2
2022-09-04T17:28:46.080Z,1.3
2022-09-04T17:28:57.233Z,1.2
2022-09-04T17:29:13.984Z,1.2
2022-09-04T17:29:49.174Z,1.1
2022-09-04T17:31:55.947Z,1.2
2022-09-04T17:39:25.766Z,1.1
2022-09-04T17:40:39.450Z,1.1
2022-09-04T17:40:48.035Z,1.1
2022-09-04T17:40:53.993Z,4.7
2022-09-04T17:42:16.601Z,2.1
2022-09-04T17:44:20.438Z,1.6
2022-09-04T17:46:27.752Z,1
2022-09-04T17:48:31.648Z,1
2022-09-04T17:50:35.730Z,1.2
2022-09-04T17:52:39.835Z,1.2
2022-09-04T17:54:48.911Z,1.2
2022-09-04T17:56:48.006Z,1.1
2022-09-04T17:58:52.124Z,1.5
2022-09-04T18:01:14.198Z,1.5
2022-09-04T18:03:03.363Z,1.4
2022-09-04T18:05:07.422Z,1.4
2022-09-04T18:07:22.012Z,1.1
2022-09-04T18:09:15.618Z,1.2
2022-09-04T18:11:19.732Z,1.4
2022-09-04T18:13:27.094Z,1.7
2022-09-04T18:17:35.059Z,2
2022-09-04T18:19:39.225Z,0.9
2022-09-04T18:22:46.814Z,1.1
2022-09-04T18:24:50.945Z,1.3
2022-09-04T18:29:04.239Z,1.1
2022-09-04T18:39:22.811Z,1.4
2022-09-04T18:50:27.929Z,1.2
2022-09-04T18:50:52.247Z,1.2
2022-09-04T18:53:54.531Z,1.1
2022-09-04T18:55:58.657Z,1
2022-09-04T18:58:05.805Z,1.2
2022-09-04T19:02:14.098Z,1.3
2022-09-04T19:04:19.470Z,1.2
2022-09-04T19:06:22.327Z,1.3
2022-09-04T19:08:26.616Z,1.6
2022-09-04T19:10:30.523Z,1
2022-09-04T19:12:47.427Z,1
2022-09-04T19:14:41.782Z,1.6
2022-09-04T19:16:45.932Z,1.4
2022-09-04T19:19:53.597Z,1.3
2022-09-04T19:21:58.638Z,1.8
2022-09-04T19:24:02.545Z,2
2022-09-04T19:26:08.986Z,1.5
2022-09-04T19:28:13.136Z,1.7
2022-09-04T19:32:22.912Z,1.8
2022-09-04T19:34:27.036Z,2.6
2022-09-04T19:36:32.203Z,1.5
2022-09-04T19:44:38.654Z,1.6
2022-09-04T19:46:04.308Z,1.5
2022-09-04T19:46:55.752Z,1.5
2022-09-04T19:49:45.126Z,1.9
2022-09-04T19:53:32.906Z,2.6
2022-09-04T19:53:34.224Z,1.5
2022-09-04T19:57:33.341Z,1.8
2022-09-04T19:59:22.624Z,1.6
2022-09-04T20:03:31.270Z,2.1
2022-09-04T20:05:35.028Z,1.7
2022-09-04T20:07:41.504Z,2.3
2022-09-04T20:09:46.331Z,1.6
2022-09-04T20:11:50.463Z,2.4
2022-09-04T20:13:54.599Z,2.3
2022-09-04T20:18:22.864Z,2.8
2022-09-04T20:20:27.018Z,2.3
2022-09-04T20:22:34.159Z,2.1
2022-09-04T20:24:38.302Z,2.8
2022-09-04T20:26:42.449Z,2.3
2022-09-04T20:28:48.605Z,2.3
2022-09-04T20:30:50.728Z,2.2
2022-09-04T20:32:55.905Z,2.1
2022-09-04T20:37:06.158Z,3.3
2022-09-04T20:39:10.301Z,2
2022-09-04T20:41:14.448Z,1.9
2022-09-04T20:43:18.646Z,3.2
2022-09-04T20:47:59.663Z,2.6
2022-09-04T20:52:50.004Z,3.1
2022-09-04T20:52:50.654Z,3.2
2022-09-04T20:53:00.392Z,2.2
2022-09-04T20:53:42.352Z,2.7
2022-09-04T20:55:46.624Z,3
2022-09-04T21:03:07.434Z,2.7
2022-09-04T21:03:10.163Z,2.6
2022-09-04T21:03:14.095Z,2.7
2022-09-04T21:04:03.101Z,3
2022-09-04T21:06:10.187Z,2.8
2022-09-04T21:08:14.312Z,2.7
2022-09-04T21:11:40.653Z,2.8
2022-09-04T21:13:26.486Z,2.9
2022-09-04T21:15:30.348Z,3.3
2022-09-04T21:17:35.804Z,2.7
2022-09-04T21:19:41.664Z,3
2022-09-04T21:21:47.407Z,2.4
2022-09-04T21:24:01.946Z,3.2
2022-09-04T21:25:54.088Z,3.5
2022-09-04T21:27:58.263Z,3.7
2022-09-04T21:30:02.368Z,4.3
2022-09-04T21:32:06.533Z,4.1
2022-09-04T21:34:13.685Z,4.2
2022-09-04T21:36:26.469Z,3.5
2022-09-04T21:38:21.942Z,3.4
2022-09-04T21:44:34.391Z,4.2
2022-09-04T21:46:38.556Z,4
2022-09-04T21:48:45.799Z,2.8
2022-09-04T21:50:49.827Z,3.8
2022-09-04T21:52:55.838Z,3.5
2022-09-04T21:57:20.814Z,3.6
2022-09-04T22:02:29.269Z,3.6
2022-09-04T22:02:29.836Z,3.6
2022-09-04T22:02:35.356Z,3.5
2022-09-04T22:05:21.814Z,3.9
2022-09-04T22:10:55.975Z,3.7
2022-09-04T22:13:39.417Z,4
2022-09-04T22:14:41.910Z,4.1
2022-09-04T22:16:49.145Z,3.7
2022-09-04T22:23:01.529Z,4.1
2022-09-04T22:27:09.778Z,4.2
2022-09-04T22:29:13.894Z,4.5
2022-09-04T22:31:21.098Z,3.4
2022-09-04T22:33:25.322Z,4.2
2022-09-04T22:35:35.828Z,3.6
2022-09-04T22:37:33.416Z,3.3
2022-09-04T22:39:37.644Z,3.4
2022-09-04T22:41:41.725Z,3.9
2022-09-04T22:43:47.036Z,3.1
2022-09-04T22:45:52.987Z,4.1
2022-09-04T22:47:57.127Z,3.8
2022-09-04T22:50:01.252Z,4.4
2022-09-04T22:52:09.930Z,4.4
2022-09-04T22:56:24.371Z,4.8
2022-09-04T22:58:17.768Z,5.2
2022-09-04T23:00:24.931Z,5.3
2022-09-04T23:02:54.241Z,4.7
2022-09-04T23:04:33.210Z,6.2
2022-09-04T23:11:35.924Z,5.3
2022-09-04T23:14:06.329Z,4.6
2022-09-04T23:16:00.538Z,3.6
2022-09-04T23:19:31.293Z,4.2
2022-09-04T23:26:36.926Z,4.3
2022-09-04T23:26:59.278Z,5
2022-09-04T23:30:32.371Z,4
2022-09-04T23:32:36.511Z,5.6
2022-09-04T23:34:40.679Z,7.3
2022-09-04T23:36:45.468Z,5
2022-09-04T23:38:48.905Z,5
2022-09-04T23:40:53.075Z,5.5
2022-09-04T23:45:04.331Z,5
2022-09-04T23:49:12.574Z,5.5
2022-09-04T23:51:16.722Z,4.9
2022-09-04T23:57:32.122Z,4.4
